Time;durP1;ratioP1;P1;durP2;ratioP2;P2;SDS_P1;SDS_P2;PMS_P1;PMS_P2;Temp;Humidity;BMP_temperature;BMP_pressure;BME280_temperature;BME280_humidity;BME280_pressure;Samples;Min_cycle;Max_cycle;Signal;HPM_P1;HPM_P2
2021/03/17 00:00:44;;;;;;;3.07;2.83;;;10.70;58.20;;;;;;5005696;28;20503;-41
2021/03/17 00:03:10;;;;;;;3.60;3.30;;;10.70;58.10;;;;;;5004144;28;20464;-44
2021/03/17 00:05:37;;;;;;;3.87;3.47;;;10.70;58.10;;;;;;5009100;28;20863;-41
2021/03/17 00:08:04;;;;;;;4.80;3.80;;;10.70;58.00;;;;;;5002869;28;20488;-41
2021/03/17 00:10:33;;;;;;;5.03;3.37;;;10.70;58.10;;;;;;5005304;28;20493;-41
2021/03/17 00:12:59;;;;;;;3.60;3.30;;;10.70;58.10;;;;;;5002782;28;20755;-41
2021/03/17 00:15:28;;;;;;;3.37;3.07;;;10.70;58.10;;;;;;5004634;28;20924;-41
2021/03/17 00:17:53;;;;;;;4.20;3.30;;;10.80;58.30;;;;;;5002508;28;20456;-42
2021/03/17 00:20:19;;;;;;;3.70;3.40;;;10.70;58.00;;;;;;5002156;28;20452;-41
2021/03/17 00:22:45;;;;;;;4.10;3.70;;;10.70;58.00;;;;;;5004755;28;20216;-41
2021/03/17 00:25:12;;;;;;;3.90;3.60;;;10.70;57.90;;;;;;5005248;28;20190;-41
2021/03/17 00:27:37;;;;;;;5.00;4.50;;;10.70;57.90;;;;;;5007024;28;20437;-41
2021/03/17 00:30:07;;;;;;;4.10;3.77;;;10.70;57.80;;;;;;5006791;28;20441;-43
2021/03/17 00:32:33;;;;;;;3.90;3.60;;;10.60;57.80;;;;;;5007244;28;20225;-41
2021/03/17 00:34:59;;;;;;;4.60;4.20;;;10.70;57.80;;;;;;5005267;28;20536;-41
2021/03/17 00:37:24;;;;;;;4.60;3.70;;;10.60;57.80;;;;;;5006017;28;20205;-43
2021/03/17 00:39:50;;;;;;;5.13;4.23;;;10.60;57.80;;;;;;5005715;28;20641;-41
2021/03/17 00:42:16;;;;;;;4.70;4.30;;;10.60;57.80;;;;;;5001510;28;20186;-41
2021/03/17 00:44:42;;;;;;;4.23;3.83;;;10.60;57.90;;;;;;5005095;28;20436;-41
2021/03/17 00:47:08;;;;;;;4.20;3.90;;;10.60;57.90;;;;;;5004497;28;20691;-41
2021/03/17 00:49:33;;;;;;;4.97;4.27;;;10.60;57.80;;;;;;5005142;28;20488;-42
2021/03/17 00:51:59;;;;;;;4.53;4.13;;;10.60;57.70;;;;;;5002949;28;20221;-42
2021/03/17 00:54:24;;;;;;;3.93;3.53;;;10.60;57.80;;;;;;5003962;28;20194;-42
2021/03/17 00:56:50;;;;;;;4.10;3.50;;;10.60;58.10;;;;;;5005340;28;20194;-41
2021/03/17 00:59:16;;;;;;;4.10;3.80;;;10.60;58.30;;;;;;5002179;28;20340;-42
2021/03/17 01:01:41;;;;;;;4.63;4.13;;;10.50;58.40;;;;;;5001850;28;20189;-41
2021/03/17 01:04:07;;;;;;;5.33;4.33;;;10.60;58.50;;;;;;5003229;28;20205;-41
2021/03/17 01:06:32;;;;;;;4.80;4.30;;;10.60;58.50;;;;;;5000284;28;20570;-41
2021/03/17 01:08:58;;;;;;;6.13;4.87;;;10.60;58.40;;;;;;5007397;28;20267;-41
2021/03/17 01:11:24;;;;;;;4.87;4.20;;;10.60;58.60;;;;;;5007018;28;20587;-41
2021/03/17 01:13:50;;;;;;;5.70;4.37;;;10.60;58.30;;;;;;5009114;28;20190;-42
2021/03/17 01:16:15;;;;;;;4.40;3.80;;;10.50;58.30;;;;;;5011207;28;20211;-41
2021/03/17 01:18:41;;;;;;;4.47;4.07;;;10.50;58.20;;;;;;5005623;28;20441;-41
2021/03/17 01:21:07;;;;;;;5.57;4.33;;;10.50;58.30;;;;;;5003502;28;20225;-41
2021/03/17 01:23:32;;;;;;;4.67;4.03;;;10.50;58.20;;;;;;5004671;28;20256;-41
2021/03/17 01:25:58;;;;;;;5.20;4.70;;;10.50;58.30;;;;;;5006385;28;20197;-42
2021/03/17 01:28:23;;;;;;;4.20;3.80;;;10.50;58.20;;;;;;5007211;28;20225;-41
2021/03/17 01:30:53;;;;;;;4.30;3.90;;;10.50;58.10;;;;;;5008422;28;20704;-41
2021/03/17 01:33:19;;;;;;;4.90;3.50;;;10.50;58.20;;;;;;5005141;28;20224;-41
2021/03/17 01:35:47;;;;;;;4.47;4.07;;;10.40;58.30;;;;;;5005440;28;20437;-41
2021/03/17 01:38:13;;;;;;;5.10;4.60;;;10.40;58.40;;;;;;5007553;28;20449;-41
2021/03/17 01:40:43;;;;;;;4.13;3.73;;;10.40;58.50;;;;;;5008807;28;20441;-42
2021/03/17 01:43:09;;;;;;;6.70;4.50;;;10.40;58.40;;;;;;5006530;28;20484;-42
2021/03/17 01:45:36;;;;;;;5.50;4.63;;;10.40;58.50;;;;;;5006892;28;20444;-41
2021/03/17 01:48:01;;;;;;;4.50;4.10;;;10.50;58.50;;;;;;5004807;28;20958;-41
2021/03/17 01:50:34;;;;;;;4.80;4.40;;;10.40;58.50;;;;;;5006767;28;20440;-41
2021/03/17 01:53:12;;;;;;;4.37;3.97;;;10.40;58.50;;;;;;5007478;28;20231;-41
2021/03/17 01:55:39;;;;;;;5.00;4.40;;;10.40;58.60;;;;;;5004344;28;20484;-41
2021/03/17 01:58:05;;;;;;;4.90;4.40;;;10.40;58.60;;;;;;5006285;28;20441;-41
2021/03/17 02:00:32;;;;;;;4.00;3.63;;;10.30;58.60;;;;;;5010349;28;20878;-41
2021/03/17 02:02:57;;;;;;;4.93;4.53;;;10.30;58.60;;;;;;5007100;28;20459;-41
2021/03/17 02:05:28;;;;;;;4.80;4.40;;;10.40;58.60;;;;;;5006519;28;20441;-41
2021/03/17 02:07:56;;;;;;;4.40;4.00;;;10.40;58.50;;;;;;5008441;28;20302;-41
2021/03/17 02:10:22;;;;;;;4.30;3.80;;;10.30;58.60;;;;;;5004950;28;20433;-41
2021/03/17 02:13:00;;;;;;;4.20;3.80;;;10.20;58.60;;;;;;5007305;28;20511;-41
2021/03/17 02:16:10;;;;;;;4.87;4.00;;;10.20;58.70;;;;;;5008607;28;20451;-41
2021/03/17 02:18:53;;;;;;;4.40;4.00;;;10.10;58.80;;;;;;5010884;28;20453;-41
2021/03/17 02:21:43;;;;;;;3.90;3.50;;;10.00;59.60;;;;;;5004134;28;20455;-41
2021/03/17 02:24:20;;;;;;;5.20;4.80;;;9.90;59.90;;;;;;5007805;28;20820;-41
2021/03/17 02:27:10;;;;;;;4.07;3.77;;;9.80;60.40;;;;;;5006909;28;20530;-41
2021/03/17 02:29:57;;;;;;;4.93;4.50;;;9.80;60.50;;;;;;5007275;28;20491;-41
2021/03/17 02:33:02;;;;;;;4.23;3.87;;;9.90;60.20;;;;;;5005644;28;21940;-41
2021/03/17 02:35:30;;;;;;;4.43;4.10;;;10.00;59.00;;;;;;5004141;28;20449;-41
2021/03/17 02:37:58;;;;;;;4.47;4.07;;;10.00;59.10;;;;;;5008126;28;20445;-41
2021/03/17 02:40:29;;;;;;;4.80;4.30;;;10.10;59.00;;;;;;5009810;28;20806;-41
2021/03/17 02:43:08;;;;;;;5.50;4.40;;;10.10;59.00;;;;;;5007802;28;20511;-41
2021/03/17 02:45:36;;;;;;;4.73;4.33;;;10.00;59.00;;;;;;5004042;28;20452;-41
2021/03/17 02:48:22;;;;;;;7.43;4.27;;;10.00;59.10;;;;;;5004924;28;20956;-41
2021/03/17 02:50:49;;;;;;;5.50;5.00;;;10.10;59.00;;;;;;5006160;28;20485;-41
2021/03/17 02:53:17;;;;;;;5.23;4.30;;;10.10;58.90;;;;;;5005414;28;20456;-42
2021/03/17 02:55:51;;;;;;;4.80;4.30;;;10.20;58.90;;;;;;5004485;28;20449;-41
2021/03/17 02:58:17;;;;;;;5.10;4.70;;;10.20;58.90;;;;;;5002042;28;20452;-42
2021/03/17 03:00:44;;;;;;;5.60;5.03;;;10.10;59.20;;;;;;5006895;28;20437;-41
2021/03/17 03:03:11;;;;;;;4.40;4.00;;;10.00;59.40;;;;;;5004137;28;20449;-41
2021/03/17 03:05:38;;;;;;;5.80;4.70;;;10.00;59.10;;;;;;5008886;28;20451;-41
2021/03/17 03:08:06;;;;;;;4.60;4.00;;;10.00;59.40;;;;;;5007757;28;20473;-41
2021/03/17 03:10:32;;;;;;;4.77;4.37;;;9.90;60.30;;;;;;5008811;28;20532;-41
2021/03/17 03:13:00;;;;;;;4.43;4.03;;;10.00;59.20;;;;;;5002899;28;20452;-41
2021/03/17 03:15:28;;;;;;;4.90;4.50;;;10.00;59.00;;;;;;5008265;28;20856;-41
2021/03/17 03:17:59;;;;;;;4.30;4.00;;;10.00;59.10;;;;;;5004857;28;20932;-41
2021/03/17 03:20:31;;;;;;;5.60;4.50;;;10.00;59.10;;;;;;5004745;28;20947;-41
2021/03/17 03:22:57;;;;;;;4.53;4.10;;;10.10;59.20;;;;;;5004937;28;20554;-41
2021/03/17 03:25:25;;;;;;;5.20;4.50;;;10.00;59.00;;;;;;5005746;28;20816;-41
2021/03/17 03:27:52;;;;;;;4.60;4.20;;;10.10;58.90;;;;;;5004729;28;20447;-42
2021/03/17 03:30:24;;;;;;;4.60;4.20;;;10.10;59.00;;;;;;5002947;28;21071;-41
2021/03/17 03:32:52;;;;;;;5.13;4.63;;;10.00;59.20;;;;;;5003271;28;20452;-41
2021/03/17 03:35:19;;;;;;;5.17;4.67;;;9.90;60.30;;;;;;5003230;28;20567;-41
2021/03/17 03:37:44;;;;;;;5.53;5.03;;;10.00;59.20;;;;;;5004854;28;20477;-41
2021/03/17 03:40:17;;;;;;;5.50;5.00;;;10.10;59.10;;;;;;5001063;28;20874;-41
2021/03/17 03:42:44;;;;;;;5.43;4.93;;;10.10;59.00;;;;;;5006722;28;20221;-41
2021/03/17 03:45:13;;;;;;;4.90;4.47;;;10.10;58.90;;;;;;5003146;28;20491;-41
2021/03/17 03:47:39;;;;;;;6.50;4.17;;;10.10;58.90;;;;;;5008779;28;20448;-41
2021/03/17 03:50:07;;;;;;;6.03;4.67;;;10.10;58.80;;;;;;5007725;28;20871;-43
2021/03/17 03:52:45;;;;;;;5.90;5.30;;;10.10;58.80;;;;;;4987702;28;21084;-41
2021/03/17 03:55:23;;;;;;;4.63;4.10;;;10.10;58.80;;;;;;5001298;28;20482;-41
2021/03/17 03:57:51;;;;;;;6.30;4.83;;;10.00;58.80;;;;;;5006788;28;20441;-41
2021/03/17 04:00:20;;;;;;;4.80;4.10;;;10.00;58.70;;;;;;5002018;28;20441;-41
2021/03/17 04:02:52;;;;;;;5.37;4.87;;;10.00;58.90;;;;;;5004941;28;20436;-41
2021/03/17 04:05:22;;;;;;;5.80;4.43;;;10.00;58.80;;;;;;5002345;28;20444;-40
2021/03/17 04:07:52;;;;;;;5.10;4.57;;;10.00;59.00;;;;;;5003361;28;20464;-41
2021/03/17 04:10:21;;;;;;;6.17;4.93;;;10.00;58.90;;;;;;5003260;28;20457;-41
2021/03/17 04:12:47;;;;;;;5.33;4.83;;;10.00;59.00;;;;;;5002831;28;20477;-41
2021/03/17 04:15:17;;;;;;;5.00;4.60;;;9.90;60.00;;;;;;5004210;28;20457;-41
2021/03/17 04:17:42;;;;;;;4.70;4.30;;;10.00;59.00;;;;;;5002196;28;20441;-42
2021/03/17 04:20:11;;;;;;;6.10;5.57;;;9.90;59.80;;;;;;5006035;28;20464;-41
2021/03/17 04:22:39;;;;;;;7.07;5.03;;;9.90;59.80;;;;;;5005632;28;20568;-41
2021/03/17 04:25:07;;;;;;;6.30;5.70;;;10.00;59.10;;;;;;5002558;28;21133;-41
2021/03/17 04:27:34;;;;;;;5.80;5.20;;;9.90;60.00;;;;;;5006966;28;20448;-41
2021/03/17 04:30:03;;;;;;;5.20;4.80;;;9.90;59.90;;;;;;5001262;28;20839;-41
2021/03/17 04:32:31;;;;;;;5.20;4.70;;;9.90;60.10;;;;;;5004999;28;20453;-41
2021/03/17 04:34:57;;;;;;;6.03;5.43;;;9.90;60.10;;;;;;5002183;28;20444;-41
2021/03/17 04:37:23;;;;;;;5.83;5.23;;;9.90;60.10;;;;;;5004282;28;20575;-41
2021/03/17 04:39:51;;;;;;;5.50;5.00;;;10.00;59.10;;;;;;5001855;28;20515;-41
2021/03/17 04:42:17;;;;;;;5.70;5.20;;;9.80;60.10;;;;;;5006392;28;20440;-41
2021/03/17 04:44:43;;;;;;;5.63;5.13;;;9.80;60.20;;;;;;5001618;28;20441;-41
2021/03/17 04:47:13;;;;;;;6.20;5.60;;;9.80;60.50;;;;;;5001284;28;20877;-41
2021/03/17 04:49:45;;;;;;;5.87;5.10;;;9.90;60.60;;;;;;5002256;28;20575;-41
2021/03/17 04:52:14;;;;;;;5.37;4.87;;;9.90;60.50;;;;;;5005159;28;20453;-41
2021/03/17 04:54:40;;;;;;;5.70;5.20;;;9.80;60.70;;;;;;5005543;28;20436;-41
2021/03/17 04:57:10;;;;;;;6.80;5.70;;;9.80;60.60;;;;;;5004159;28;20479;-41
2021/03/17 04:59:37;;;;;;;6.30;5.70;;;9.70;60.90;;;;;;5000898;28;20499;-41
2021/03/17 05:02:04;;;;;;;6.47;5.87;;;9.70;61.00;;;;;;5003553;28;20441;-41
2021/03/17 05:04:32;;;;;;;6.00;5.40;;;9.70;61.00;;;;;;5003004;28;20830;-41
2021/03/17 05:06:58;;;;;;;6.90;6.27;;;9.80;61.00;;;;;;5007771;28;20856;-41
2021/03/17 05:09:25;;;;;;;6.23;5.63;;;9.80;60.80;;;;;;5006079;28;20492;-41
2021/03/17 05:11:50;;;;;;;7.07;5.23;;;9.70;61.00;;;;;;5005313;28;20530;-41
2021/03/17 05:14:18;;;;;;;5.73;5.10;;;9.80;61.20;;;;;;5004563;28;22133;-41
2021/03/17 05:16:44;;;;;;;7.93;6.20;;;9.80;60.90;;;;;;5004559;28;20182;-41
2021/03/17 05:19:12;;;;;;;7.17;6.47;;;9.90;60.80;;;;;;5006791;28;20440;-41
2021/03/17 05:21:39;;;;;;;6.87;6.13;;;9.80;60.80;;;;;;5002170;28;20444;-41
2021/03/17 05:24:06;;;;;;;6.70;5.87;;;9.80;60.70;;;;;;5004243;28;20579;-41
2021/03/17 05:26:34;;;;;;;7.50;6.77;;;9.80;60.60;;;;;;5001945;28;20444;-41
2021/03/17 05:29:01;;;;;;;7.57;6.47;;;9.80;60.60;;;;;;5002893;28;20539;-43
2021/03/17 05:31:27;;;;;;;7.70;6.70;;;9.70;60.70;;;;;;5001816;28;20481;-41
2021/03/17 05:33:53;;;;;;;7.80;6.67;;;9.70;61.10;;;;;;5000438;28;21975;-41
2021/03/17 05:36:18;;;;;;;6.13;5.57;;;9.70;61.40;;;;;;5002040;28;20448;-41
2021/03/17 05:38:44;;;;;;;8.27;7.37;;;9.60;61.60;;;;;;5000334;28;20611;-42
2021/03/17 05:41:10;;;;;;;7.40;6.70;;;9.60;61.60;;;;;;5001225;28;20194;-42
2021/03/17 05:43:38;;;;;;;9.17;8.27;;;9.70;61.30;;;;;;5000024;28;20225;-41
2021/03/17 05:46:07;;;;;;;8.93;7.60;;;9.60;61.40;;;;;;5001737;28;20455;-41
2021/03/17 05:48:34;;;;;;;9.40;7.17;;;9.60;61.70;;;;;;5003139;28;20476;-41
2021/03/17 05:51:00;;;;;;;8.87;7.87;;;9.70;61.40;;;;;;5003121;28;20452;-41
2021/03/17 05:53:26;;;;;;;8.57;7.77;;;9.60;61.50;;;;;;5000876;28;20450;-41
2021/03/17 05:55:52;;;;;;;8.13;7.33;;;9.60;61.40;;;;;;5003113;28;20449;-42
2021/03/17 05:58:20;;;;;;;7.87;6.80;;;9.80;61.20;;;;;;4999953;28;21920;-41
2021/03/17 06:00:46;;;;;;;8.30;7.27;;;9.80;61.20;;;;;;5002197;28;20196;-41
2021/03/17 06:03:13;;;;;;;8.63;7.40;;;9.80;61.30;;;;;;5001063;28;20838;-41
2021/03/17 06:05:39;;;;;;;8.17;6.70;;;9.70;61.20;;;;;;5005635;28;20207;-41
2021/03/17 06:08:12;;;;;;;8.87;7.70;;;9.70;61.10;;;;;;5006371;28;21309;-41
2021/03/17 06:10:38;;;;;;;8.20;7.30;;;9.70;60.60;;;;;;5004595;28;20453;-41
2021/03/17 06:13:15;;;;;;;9.47;7.97;;;9.60;60.60;;;;;;5007902;28;20472;-43
2021/03/17 06:15:51;;;;;;;10.10;8.20;;;9.50;60.90;;;;;;5005327;28;20524;-41
2021/03/17 06:18:23;;;;;;;8.80;7.90;;;9.70;61.10;;;;;;5008921;28;20436;-40
2021/03/17 06:20:49;;;;;;;9.83;8.00;;;9.50;61.00;;;;;;5004601;28;20823;-40
2021/03/17 06:23:15;;;;;;;8.43;7.60;;;9.60;61.40;;;;;;5005303;28;20934;-41
2021/03/17 06:25:44;;;;;;;8.40;7.20;;;9.70;61.40;;;;;;5005774;28;20568;-40
2021/03/17 06:28:14;;;;;;;8.60;7.10;;;9.80;61.00;;;;;;5003340;28;20276;-40
2021/03/17 06:30:40;;;;;;;8.93;7.73;;;9.90;60.60;;;;;;5010750;28;20797;-40
2021/03/17 06:33:06;;;;;;;11.73;8.53;;;9.90;60.60;;;;;;5005205;28;20481;-41
2021/03/17 06:35:32;;;;;;;11.30;9.13;;;9.90;60.60;;;;;;5006273;28;20499;-40
2021/03/17 06:37:59;;;;;;;9.80;7.60;;;10.00;59.70;;;;;;5004195;28;20198;-40
2021/03/17 06:40:33;;;;;;;10.70;8.70;;;10.10;59.50;;;;;;5006693;28;20441;-40
2021/03/17 06:43:07;;;;;;;10.57;9.27;;;10.20;59.40;;;;;;5010678;28;20448;-40
2021/03/17 06:45:46;;;;;;;10.70;8.77;;;10.20;59.30;;;;;;5008185;28;20463;-40
2021/03/17 06:48:25;;;;;;;10.67;9.07;;;10.30;59.20;;;;;;5014075;28;21029;-40
2021/03/17 06:51:14;;;;;;;10.10;8.87;;;10.40;59.30;;;;;;5012617;28;20448;-40
2021/03/17 06:53:41;;;;;;;12.70;9.80;;;10.40;59.10;;;;;;5010883;28;20807;-40
2021/03/17 06:56:23;;;;;;;11.10;10.00;;;10.60;59.10;;;;;;5013967;28;20482;-40
2021/03/17 06:58:57;;;;;;;11.33;10.20;;;10.60;58.80;;;;;;5012810;28;20505;-40
2021/03/17 07:01:40;;;;;;;12.53;10.63;;;10.70;58.80;;;;;;5012853;28;20444;-40
2021/03/17 07:04:13;;;;;;;12.97;11.43;;;10.70;58.80;;;;;;5013271;28;20437;-40
2021/03/17 07:06:44;;;;;;;12.13;10.50;;;10.60;58.80;;;;;;5012584;28;20440;-40
2021/03/17 07:09:25;;;;;;;13.03;11.63;;;10.60;58.90;;;;;;5013210;28;20881;-40
2021/03/17 07:12:04;;;;;;;13.03;11.43;;;10.40;59.30;;;;;;5013458;28;20492;-40
2021/03/17 07:14:35;;;;;;;12.57;10.67;;;10.50;59.50;;;;;;5013025;28;20475;-40
2021/03/17 07:17:01;;;;;;;13.03;10.93;;;10.50;59.60;;;;;;5011252;28;20433;-40
2021/03/17 07:19:29;;;;;;;11.40;10.20;;;10.50;59.60;;;;;;5012586;28;20455;-40
2021/03/17 07:22:13;;;;;;;15.00;12.53;;;10.30;59.40;;;;;;5012134;28;20230;-40
2021/03/17 07:24:42;;;;;;;14.60;11.10;;;10.40;59.60;;;;;;5012822;28;20472;-40
2021/03/17 07:27:17;;;;;;;13.60;11.37;;;10.50;59.80;;;;;;5013520;28;20903;-40
2021/03/17 07:29:45;;;;;;;13.17;10.60;;;10.50;59.30;;;;;;5011696;28;21019;-40
2021/03/17 07:32:10;;;;;;;12.37;11.07;;;10.50;59.50;;;;;;5013226;28;20803;-40
2021/03/17 07:34:37;;;;;;;13.70;10.90;;;10.60;59.50;;;;;;5012837;28;20489;-40
2021/03/17 07:37:05;;;;;;;15.77;12.00;;;10.70;59.50;;;;;;5013813;28;20940;-40
2021/03/17 07:39:42;;;;;;;13.53;11.10;;;10.80;59.30;;;;;;5012116;28;20459;-40
2021/03/17 07:42:12;;;;;;;15.00;11.60;;;10.80;58.90;;;;;;5012810;28;20436;-40
2021/03/17 07:44:42;;;;;;;14.63;12.60;;;10.80;58.70;;;;;;5012247;28;20771;-40
2021/03/17 07:47:10;;;;;;;13.93;11.53;;;10.70;58.60;;;;;;5011375;28;20445;-40
2021/03/17 07:49:38;;;;;;;16.73;12.70;;;10.60;59.10;;;;;;5009526;28;20485;-40
2021/03/17 07:52:05;;;;;;;14.63;13.13;;;10.50;59.30;;;;;;5004031;28;20451;-40
2021/03/17 07:54:33;;;;;;;16.60;12.40;;;10.40;60.30;;;;;;5010039;28;20444;-40
2021/03/17 07:57:01;;;;;;;13.40;11.30;;;10.50;59.90;;;;;;5012301;28;20441;-40
2021/03/17 07:59:27;;;;;;;15.60;12.40;;;10.70;59.80;;;;;;5011883;28;20421;-40
2021/03/17 08:01:55;;;;;;;15.00;9.07;;;11.00;59.80;;;;;;5012089;28;20452;-40
2021/03/17 08:04:29;;;;;;;12.30;10.80;;;11.30;59.20;;;;;;5012438;28;20198;-40
2021/03/17 08:07:03;;;;;;;16.80;11.77;;;11.60;59.10;;;;;;5012412;28;20468;-41
2021/03/17 08:09:29;;;;;;;13.97;11.43;;;11.80;57.20;;;;;;5011708;28;20516;-41
2021/03/17 08:11:58;;;;;;;13.37;11.13;;;11.70;56.90;;;;;;5011742;28;20554;-40
2021/03/17 08:14:25;;;;;;;14.10;8.47;;;11.70;57.00;;;;;;5011304;28;20440;-40
2021/03/17 08:16:51;;;;;;;15.10;12.20;;;11.90;57.40;;;;;;4997177;28;20471;-42
2021/03/17 08:19:26;;;;;;;14.90;11.83;;;12.10;57.80;;;;;;5006130;28;20881;-40
2021/03/17 08:22:03;;;;;;;12.40;9.13;;;12.40;56.00;;;;;;5012133;28;20804;-40
2021/03/17 08:24:38;;;;;;;13.70;10.80;;;12.50;55.30;;;;;;5011308;28;20527;-41
2021/03/17 08:27:07;;;;;;;11.70;10.40;;;12.60;54.90;;;;;;5011596;28;20931;-40
2021/03/17 08:29:48;;;;;;;12.47;10.40;;;12.70;53.70;;;;;;5006058;28;20528;-40
2021/03/17 08:32:16;;;;;;;12.73;8.67;;;12.60;53.50;;;;;;5001219;28;20486;-40
2021/03/17 08:34:57;;;;;;;16.33;13.27;;;12.60;54.20;;;;;;4986138;28;20445;-40
2021/03/17 08:37:48;;;;;;;12.17;9.87;;;12.80;54.60;;;;;;5009104;28;20453;-40
2021/03/17 08:40:29;;;;;;;10.97;9.20;;;12.80;53.50;;;;;;5005632;28;20445;-40
2021/03/17 08:42:55;;;;;;;11.67;9.27;;;13.00;53.70;;;;;;5009072;28;20842;-41
2021/03/17 08:45:22;;;;;;;9.97;8.70;;;13.10;53.20;;;;;;5009596;28;20444;-41
2021/03/17 08:47:49;;;;;;;10.83;9.73;;;13.20;52.30;;;;;;5011211;28;20813;-40
2021/03/17 08:50:14;;;;;;;10.10;8.50;;;13.30;52.60;;;;;;5008618;28;20507;-40
2021/03/17 08:52:43;;;;;;;9.07;7.77;;;13.50;51.30;;;;;;5011376;28;20445;-41
2021/03/17 08:55:11;;;;;;;9.50;8.60;;;13.40;49.90;;;;;;5009616;28;20206;-41
2021/03/17 08:58:03;;;;;;;10.13;9.03;;;13.40;49.80;;;;;;5003245;28;20451;-41
2021/03/17 09:00:51;;;;;;;7.30;6.27;;;13.30;50.00;;;;;;5008211;28;20441;-42
2021/03/17 09:03:45;;;;;;;8.90;6.13;;;13.40;50.80;;;;;;5011043;28;20433;-41
2021/03/17 09:06:23;;;;;;;8.23;6.60;;;13.60;49.90;;;;;;4987528;28;20514;-41
2021/03/17 09:08:56;;;;;;;8.40;6.60;;;13.70;49.20;;;;;;4992981;28;20879;-40
2021/03/17 09:11:31;;;;;;;7.67;6.63;;;13.70;48.60;;;;;;5005931;28;20547;-40
2021/03/17 09:14:00;;;;;;;5.53;4.97;;;13.90;48.00;;;;;;5006739;28;20490;-40
2021/03/17 09:16:27;;;;;;;7.87;6.70;;;14.00;46.80;;;;;;5011043;28;20464;-42
2021/03/17 09:19:25;;;;;;;8.57;5.87;;;14.10;47.50;;;;;;5000359;28;20484;-42
2021/03/17 09:21:50;;;;;;;5.17;4.20;;;14.30;45.90;;;;;;4964404;28;20455;-41
2021/03/17 09:24:30;;;;;;;8.13;5.47;;;14.20;46.30;;;;;;5011490;28;20536;-41
2021/03/17 09:27:03;;;;;;;4.63;4.07;;;14.40;47.00;;;;;;5007586;28;20284;-41
2021/03/17 09:29:28;;;;;;;8.50;7.30;;;14.70;48.90;;;;;;5001791;28;20504;-41
2021/03/17 09:31:55;;;;;;;7.47;6.23;;;15.10;47.60;;;;;;4999442;28;20425;-42
2021/03/17 09:34:32;;;;;;;5.60;4.90;;;15.30;46.30;;;;;;5001575;28;20209;-42
2021/03/17 09:37:05;;;;;;;6.60;4.70;;;15.40;45.20;;;;;;4998132;28;20808;-42
2021/03/17 09:39:31;;;;;;;5.90;5.30;;;15.00;42.50;;;;;;4999471;28;20453;-42
2021/03/17 09:41:57;;;;;;;2.97;2.67;;;14.80;43.50;;;;;;5002066;28;20435;-41
2021/03/17 09:44:23;;;;;;;5.80;4.73;;;14.70;44.50;;;;;;5003834;28;20429;-41
2021/03/17 09:46:53;;;;;;;4.63;4.13;;;14.90;45.50;;;;;;5007233;28;20646;-42
2021/03/17 09:49:28;;;;;;;4.73;4.33;;;15.10;46.60;;;;;;5010653;28;20222;-41
2021/03/17 09:51:58;;;;;;;5.30;3.13;;;15.30;46.20;;;;;;5015566;28;20433;-41
2021/03/17 09:54:27;;;;;;;6.30;5.17;;;15.60;46.30;;;;;;5008296;28;20815;-42
2021/03/17 09:57:01;;;;;;;3.80;3.03;;;15.70;42.30;;;;;;5012351;28;20475;-41
2021/03/17 09:59:29;;;;;;;5.33;3.40;;;15.60;42.90;;;;;;5012465;28;20538;-41
2021/03/17 10:02:21;;;;;;;4.10;3.73;;;15.70;43.80;;;;;;5011294;28;20440;-41
2021/03/17 10:04:58;;;;;;;4.43;4.00;;;15.80;41.70;;;;;;5002836;28;21349;-41
2021/03/17 10:07:26;;;;;;;3.50;3.20;;;15.50;40.50;;;;;;5003872;28;20502;-41
2021/03/17 10:09:53;;;;;;;4.03;3.73;;;15.20;40.90;;;;;;5013432;28;20480;-41
2021/03/17 10:12:27;;;;;;;5.10;3.07;;;15.30;42.90;;;;;;5004257;28;20468;-41
2021/03/17 10:14:55;;;;;;;3.73;3.43;;;15.30;41.50;;;;;;5007121;28;20755;-41
2021/03/17 10:17:25;;;;;;;4.30;3.10;;;15.20;42.80;;;;;;5004694;28;20455;-41
2021/03/17 10:19:56;;;;;;;5.97;3.60;;;15.20;43.00;;;;;;5007748;28;20975;-41
2021/03/17 10:22:24;;;;;;;6.60;4.67;;;15.10;42.40;;;;;;4998691;28;20429;-41
2021/03/17 10:24:51;;;;;;;4.70;3.53;;;15.10;44.10;;;;;;5005131;28;20437;-40
2021/03/17 10:27:43;;;;;;;3.07;2.77;;;15.10;45.00;;;;;;5006141;28;20950;-41
2021/03/17 10:30:11;;;;;;;8.33;5.07;;;15.20;45.90;;;;;;5010905;28;20492;-40
2021/03/17 10:32:39;;;;;;;5.07;3.90;;;15.30;46.10;;;;;;5009036;28;20449;-41
2021/03/17 10:35:08;;;;;;;6.47;3.93;;;15.40;43.40;;;;;;5000798;28;20507;-41
2021/03/17 10:37:35;;;;;;;5.07;4.67;;;15.20;43.80;;;;;;5005309;28;20434;-41
2021/03/17 10:40:13;;;;;;;5.63;4.50;;;15.00;43.40;;;;;;5006942;28;20434;-41
2021/03/17 10:42:47;;;;;;;5.43;4.83;;;14.90;44.50;;;;;;5004127;28;20854;-40
2021/03/17 10:45:18;;;;;;;5.80;4.33;;;14.80;45.20;;;;;;5005345;28;20935;-41
2021/03/17 10:47:45;;;;;;;8.07;4.60;;;14.70;45.60;;;;;;5007582;28;20510;-40
2021/03/17 10:50:32;;;;;;;6.73;5.70;;;14.60;46.10;;;;;;5009202;28;20484;-41
2021/03/17 10:52:58;;;;;;;7.60;5.73;;;14.70;47.40;;;;;;5008199;28;20449;-41
2021/03/17 10:55:29;;;;;;;7.50;4.93;;;14.80;48.00;;;;;;5003831;28;20520;-40
2021/03/17 10:58:13;;;;;;;4.13;3.73;;;14.90;47.60;;;;;;5011107;28;20197;-41
2021/03/17 11:00:40;;;;;;;7.10;5.77;;;15.00;47.00;;;;;;5007534;28;20478;-41
2021/03/17 11:03:27;;;;;;;5.73;4.60;;;15.20;47.20;;;;;;5009607;28;20868;-41
2021/03/17 11:06:20;;;;;;;6.63;5.10;;;15.30;46.70;;;;;;5007133;28;20983;-41
2021/03/17 11:09:01;;;;;;;9.00;5.03;;;15.30;45.50;;;;;;5012548;28;20571;-41
2021/03/17 11:11:27;;;;;;;6.83;6.03;;;15.30;45.80;;;;;;5011332;28;20964;-41
2021/03/17 11:13:53;;;;;;;6.37;5.40;;;15.30;45.30;;;;;;5012619;28;20464;-40
2021/03/17 11:16:27;;;;;;;8.50;5.57;;;15.30;45.60;;;;;;5008496;28;20642;-40
2021/03/17 11:18:58;;;;;;;10.10;6.13;;;15.40;45.70;;;;;;5007565;28;20444;-41
2021/03/17 11:21:33;;;;;;;14.73;6.50;;;15.20;46.60;;;;;;5011393;28;20461;-41
2021/03/17 11:24:01;;;;;;;6.50;5.00;;;15.00;49.10;;;;;;5011783;28;20532;-40
2021/03/17 11:26:34;;;;;;;6.27;5.50;;;15.10;48.70;;;;;;5001709;28;20433;-41
2021/03/17 11:29:01;;;;;;;11.10;5.40;;;15.50;47.20;;;;;;5011568;28;20570;-42
2021/03/17 11:31:35;;;;;;;12.10;4.47;;;15.80;45.70;;;;;;5009838;28;20437;-41
2021/03/17 11:34:02;;;;;;;3.87;3.47;;;16.00;44.40;;;;;;4999313;28;20453;-41
2021/03/17 11:36:28;;;;;;;4.97;3.60;;;15.50;46.10;;;;;;5006882;28;20432;-41
2021/03/17 11:38:55;;;;;;;6.40;4.43;;;15.50;46.60;;;;;;5004451;28;20959;-41
2021/03/17 11:41:21;;;;;;;4.43;3.80;;;15.80;46.10;;;;;;5002298;28;20441;-40
2021/03/17 11:43:47;;;;;;;4.43;4.03;;;16.20;43.60;;;;;;5010779;28;20429;-40
2021/03/17 11:46:13;;;;;;;8.63;4.10;;;16.30;42.50;;;;;;5010274;28;20440;-42
2021/03/17 11:48:39;;;;;;;8.67;6.87;;;16.40;42.10;;;;;;5010922;28;20673;-42
2021/03/17 11:51:07;;;;;;;9.90;8.60;;;16.20;40.90;;;;;;5010478;28;20205;-42
2021/03/17 11:53:34;;;;;;;5.43;4.93;;;15.80;41.30;;;;;;5008792;28;20437;-42
2021/03/17 11:56:00;;;;;;;3.50;3.20;;;15.50;42.00;;;;;;5010311;28;20519;-42
2021/03/17 11:58:26;;;;;;;5.50;3.37;;;15.20;42.60;;;;;;5009838;28;21014;-42
2021/03/17 12:00:52;;;;;;;7.23;3.43;;;14.90;43.70;;;;;;5011221;28;20523;-42
2021/03/17 12:03:17;;;;;;;3.67;3.37;;;14.60;44.10;;;;;;5011544;28;20583;-41
2021/03/17 12:05:43;;;;;;;3.83;2.87;;;14.50;44.90;;;;;;5011647;28;20202;-43
2021/03/17 12:08:10;;;;;;;4.80;3.03;;;14.20;44.50;;;;;;5011703;28;20209;-42
2021/03/17 12:10:36;;;;;;;6.17;3.20;;;14.00;45.30;;;;;;5011023;28;20460;-41
2021/03/17 12:13:03;;;;;;;4.03;3.73;;;13.80;46.20;;;;;;5011029;28;20477;-42
2021/03/17 12:15:29;;;;;;;6.53;4.17;;;13.70;47.50;;;;;;5010830;28;20448;-42
2021/03/17 12:17:55;;;;;;;3.87;3.47;;;13.50;47.50;;;;;;5012024;28;20460;-42
2021/03/17 12:20:25;;;;;;;5.73;3.93;;;13.00;47.70;;;;;;5011142;28;20516;-41
2021/03/17 12:22:51;;;;;;;5.90;4.07;;;12.80;49.20;;;;;;5011499;28;20463;-41
2021/03/17 12:25:18;;;;;;;5.10;4.43;;;12.50;50.10;;;;;;5009493;28;20508;-44
2021/03/17 12:27:43;;;;;;;7.23;4.57;;;12.20;51.20;;;;;;5012152;28;20924;-43
2021/03/17 12:30:13;;;;;;;5.37;3.87;;;12.10;52.00;;;;;;5006513;28;20495;-42
2021/03/17 12:32:39;;;;;;;5.33;3.70;;;12.00;52.70;;;;;;5003966;28;20192;-43
2021/03/17 12:35:07;;;;;;;5.90;4.50;;;11.90;52.60;;;;;;5000429;28;20445;-42
2021/03/17 12:37:32;;;;;;;6.60;4.97;;;11.90;52.90;;;;;;5009102;28;20510;-41
2021/03/17 12:39:58;;;;;;;5.30;4.33;;;11.70;53.10;;;;;;5010997;28;20465;-41
2021/03/17 12:42:24;;;;;;;5.13;4.53;;;11.70;53.20;;;;;;5010530;28;20267;-41
2021/03/17 12:44:51;;;;;;;6.60;5.20;;;11.70;53.20;;;;;;5007950;28;20194;-40
2021/03/17 12:47:16;;;;;;;6.43;5.37;;;11.50;53.60;;;;;;5004373;28;20452;-41
2021/03/17 12:49:42;;;;;;;7.63;4.97;;;11.50;54.30;;;;;;5010947;28;20233;-41
2021/03/17 12:52:09;;;;;;;6.40;4.60;;;11.70;54.30;;;;;;5007384;28;20254;-42
2021/03/17 12:54:35;;;;;;;5.60;4.70;;;11.70;54.10;;;;;;5000455;28;20202;-42
2021/03/17 12:57:00;;;;;;;5.83;4.60;;;11.70;54.00;;;;;;5005339;28;20433;-42
2021/03/17 12:59:26;;;;;;;4.73;4.20;;;11.80;54.20;;;;;;5006541;28;20653;-41